Terminal Aerodrome Forecast
Issued by NWS

Home | Current Version | Previous Version | Text Only | Print | Product List | Glossary On
Versions: 1 2 3 4 5 6 7 8 9 10 11 12
760
FTUS44 KJAN 031754
TAFGTR
TAF
KGTR 031754Z 0318/0418 06004KT P6SM -RA SCT070 BKN100
     FM040000 07012KT 5SM -RA BR BKN015 OVC060
     FM041400 08010KT 4SM RA BR OVC008=

USA.gov is the U.S. government's official web portal to all federal, state and local government web resources and services.